Time;durP1;ratioP1;P1;durP2;ratioP2;P2;SDS_P1;SDS_P2;PMS_P1;PMS_P2;Temp;Humidity;BMP_temperature;BMP_pressure;BME280_temperature;BME280_humidity;BME280_pressure;Samples;Min_cycle;Max_cycle;Signal;HPM_P1;HPM_P2
2023/01/17 00:01:55;;;;;;;;;3.25;2.50;;;;;20.71;42.86;98726.53;5077214;28;45356;-71
2023/01/17 00:09:57;;;;;;;;;4.00;4.00;;;;;20.69;42.93;98718.03;5077320;28;45444;-72
2023/01/17 00:12:25;;;;;;;;;3.67;3.00;;;;;20.72;42.70;98722.06;5075928;28;45262;-72
2023/01/17 00:14:52;;;;;;;;;3.00;3.00;;;;;20.66;43.06;98707.91;5077455;28;45300;-72
2023/01/17 00:17:17;;;;;;;;;4.50;3.25;;;;;20.70;42.87;98716.22;5093017;27;45508;-72
2023/01/17 01:34:21;;;;;;;;;5.00;4.00;;;;;20.59;42.62;98681.59;5076141;28;45308;-71
2023/01/17 01:36:46;;;;;;;;;6.25;6.25;;;;;20.49;42.82;98673.38;5076162;27;45388;-71
2023/01/17 01:39:11;;;;;;;;;5.67;5.33;;;;;20.59;42.61;98673.66;5075922;28;45305;-71
2023/01/17 01:41:37;;;;;;;;;5.75;5.75;;;;;20.59;42.63;98671.00;5076274;28;45340;-72
2023/01/17 01:44:02;;;;;;;;;5.75;4.50;;;;;20.57;42.65;98667.78;5076213;28;45253;-71
2023/01/17 01:46:38;;;;;;;;;5.00;4.00;;;;;20.60;42.32;98663.91;5075909;27;45394;-71
2023/01/17 01:49:17;;;;;;;;;4.75;4.00;;;;;20.60;42.38;98670.00;5076205;28;45395;-72
2023/01/17 01:51:48;;;;;;;;;5.00;5.00;;;;;20.62;42.54;98664.47;5075970;28;45468;-72
2023/01/17 01:54:19;;;;;;;;;8.25;6.00;;;;;20.60;42.22;98659.44;5074555;27;45398;-70
2023/01/17 01:56:47;;;;;;;;;3.75;3.50;;;;;20.62;42.47;98661.84;5075640;27;45305;-70
2023/01/17 01:59:15;;;;;;;;;4.75;4.25;;;;;20.61;42.41;98657.56;5075944;28;45265;-72
2023/01/17 02:01:40;;;;;;;;;6.50;4.75;;;;;20.46;42.04;98629.72;5075533;28;45376;-72
2023/01/17 02:04:08;;;;;;;;;3.75;3.50;;;;;20.62;42.23;98656.56;5075543;28;46944;-72
2023/01/17 02:07:29;;;;;;;;;3.25;3.25;;;;;20.61;42.59;98647.00;5075692;28;45377;-72
2023/01/17 02:09:55;;;;;;;;;5.75;4.00;;;;;20.33;42.75;98603.47;5012413;28;45362;-72
2023/01/17 02:12:21;;;;;;;;;5.50;4.75;;;;;20.60;42.32;98638.28;5013233;28;45366;-72
2023/01/17 02:14:46;;;;;;;;;4.25;3.75;;;;;20.59;42.29;98634.03;5013113;28;47103;-72
2023/01/17 02:17:27;;;;;;;;;4.75;3.75;;;;;20.60;42.28;98630.38;5013062;28;45520;-72
2023/01/17 02:20:14;;;;;;;;;4.75;4.75;;;;;20.58;42.13;98616.53;5013206;28;45394;-71
2023/01/17 02:22:42;;;;;;;;;5.00;5.00;;;;;20.59;42.51;98622.66;5012837;28;45421;-71
2023/01/17 02:25:36;;;;;;;;;4.75;4.75;;;;;20.58;42.21;98619.19;5013006;28;45453;-72
2023/01/17 02:28:02;;;;;;;;;6.25;4.25;;;;;20.57;42.39;98617.59;5012881;28;45426;-71
2023/01/17 02:30:32;;;;;;;;;6.00;5.00;;;;;20.57;42.47;98617.59;5012857;28;45206;-72
2023/01/17 02:33:21;;;;;;;;;5.50;4.00;;;;;20.57;42.52;98604.38;5013071;28;45449;-72
2023/01/17 02:35:52;;;;;;;;;8.00;6.00;;;;;20.57;42.29;98612.31;5015554;28;46323;-71
2023/01/17 02:38:26;;;;;;;;;6.75;6.25;;;;;20.56;42.16;98602.75;5015847;28;45382;-72
2023/01/17 02:44:17;;;;;;;;;4.50;3.75;;;;;20.56;42.43;98601.94;6098879;22;46448;-71
2023/01/17 02:46:43;;;;;;;;;5.00;5.00;;;;;20.56;42.13;98605.41;5090909;22;47586;-70
2023/01/17 02:49:09;;;;;;;;;5.50;5.50;;;;;20.57;42.34;98598.28;5056554;28;45276;-70
2023/01/17 02:51:45;;;;;;;;;6.00;6.00;;;;;20.54;42.37;98583.69;5057071;28;45711;-71
2023/01/17 02:54:43;;;;;;;;;4.00;3.75;;;;;20.54;42.03;98581.06;5058047;28;45476;-72
2023/01/17 02:57:20;;;;;;;;;9.75;7.50;;;;;20.54;42.08;98586.34;5038015;28;45986;-72
2023/01/17 03:00:13;;;;;;;;;7.00;3.00;;;;;20.55;42.30;98579.22;5038447;28;45347;-72
2023/01/17 03:02:44;;;;;;;;;5.50;5.50;;;;;20.53;42.19;98568.91;5038031;28;45491;-72
2023/01/17 03:05:16;;;;;;;;;4.00;4.00;;;;;20.54;41.94;98567.03;5057741;28;46048;-72
2023/01/17 03:07:43;;;;;;;;;5.50;5.00;;;;;20.53;42.36;98555.69;5058050;28;46260;-71
2023/01/17 03:10:11;;;;;;;;;5.50;4.00;;;;;20.53;42.36;98562.81;5058074;28;45376;-71
2023/01/17 03:12:38;;;;;;;;;2.75;1.75;;;;;20.53;42.16;98552.22;5058386;28;45351;-71
2023/01/17 03:15:12;;;;;;;;;5.50;5.00;;;;;20.53;42.20;98552.22;5057951;28;45410;-70
2023/01/17 03:17:42;;;;;;;;;5.50;4.75;;;;;20.53;42.05;98553.03;5057703;28;46387;-72
2023/01/17 03:20:08;;;;;;;;;5.00;4.75;;;;;20.51;42.11;98545.34;5056602;28;45260;-72
2023/01/17 03:22:34;;;;;;;;;6.00;5.50;;;;;20.52;42.20;98538.22;5058202;28;45327;-71
2023/01/17 03:24:59;;;;;;;;;6.25;5.25;;;;;20.49;42.21;98528.09;5057986;28;45300;-72
2023/01/17 03:27:24;;;;;;;;;5.00;5.00;;;;;20.49;42.26;98531.56;5057828;28;47287;-71
2023/01/17 03:29:50;;;;;;;;;5.00;4.00;;;;;20.51;42.20;98529.47;5057937;28;45355;-72
2023/01/17 03:32:15;;;;;;;;;7.75;6.75;;;;;20.53;41.79;98525.81;5057696;28;45384;-71
2023/01/17 03:34:40;;;;;;;;;3.75;3.75;;;;;20.50;41.64;98529.72;5057684;28;45632;-71
2023/01/17 03:37:06;;;;;;;;;4.50;3.50;;;;;20.50;42.13;98525.25;5057300;28;45558;-71
2023/01/17 03:39:31;;;;;;;;;5.00;4.50;;;;;20.54;42.17;98528.22;5057855;28;45296;-72
2023/01/17 03:41:56;;;;;;;;;5.50;5.50;;;;;20.55;42.18;98521.09;5057915;28;45336;-72
2023/01/17 03:44:21;;;;;;;;;6.00;5.25;;;;;20.49;42.19;98510.41;5057931;28;45342;-72
2023/01/17 03:46:47;;;;;;;;;8.00;4.75;;;;;20.55;42.03;98526.38;5056921;28;46225;-71
2023/01/17 03:49:12;;;;;;;;;3.75;3.50;;;;;20.54;41.83;98515.00;5057470;28;48054;-71
2023/01/17 03:51:37;;;;;;;;;6.00;5.00;;;;;20.52;42.23;98503.88;5057447;28;45253;-72
2023/01/17 03:54:03;;;;;;;;;4.25;4.00;;;;;20.55;41.94;98510.53;5057809;28;45340;-72
2023/01/17 03:56:28;;;;;;;;;3.50;3.25;;;;;20.55;41.94;98500.78;5057202;28;47111;-72
2023/01/17 03:58:53;;;;;;;;;1.00;1.00;;;;;20.50;41.62;98496.19;5057450;28;45364;-72
2023/01/17 04:01:19;;;;;;;;;6.50;4.75;;;;;20.46;41.93;98486.28;5057250;28;45495;-72
2023/01/17 04:03:44;;;;;;;;;5.75;3.00;;;;;20.55;41.94;98499.97;5057473;28;45428;-72
2023/01/17 04:06:09;;;;;;;;;5.50;5.00;;;;;20.54;41.83;98493.06;5056365;28;45461;-69
2023/01/17 04:08:35;;;;;;;;;1.33;1.00;;;;;20.54;41.75;98495.72;5056350;28;45408;-72
2023/01/17 04:11:00;;;;;;;;;7.50;4.00;;;;;20.46;41.90;98478.34;5057495;28;45329;-72
2023/01/17 04:13:26;;;;;;;;;5.25;4.75;;;;;20.45;41.68;98476.75;5057284;28;45503;-71
2023/01/17 04:15:51;;;;;;;;;4.75;4.75;;;;;20.47;41.57;98478.16;5056753;28;45883;-72
2023/01/17 04:18:19;;;;;;;;;5.00;4.00;;;;;20.53;41.57;98481.72;5057194;28;45435;-71
2023/01/17 04:20:44;;;;;;;;;5.25;5.25;;;;;20.45;42.07;98479.41;5049858;28;45420;-71
2023/01/17 04:23:10;;;;;;;;;5.50;5.50;;;;;20.51;41.96;98484.56;5036867;28;45357;-72
2023/01/17 04:25:35;;;;;;;;;4.25;4.25;;;;;20.52;41.82;98482.75;5036932;28;46010;-72
2023/01/17 04:28:03;;;;;;;;;5.00;4.25;;;;;20.51;41.96;98484.56;5036913;28;45383;-72
2023/01/17 04:30:29;;;;;;;;;5.33;5.00;;;;;20.48;41.81;98469.16;5036723;28;45381;-71
2023/01/17 04:32:54;;;;;;;;;4.33;2.67;;;;;20.51;41.97;98471.38;5037129;28;45356;-72
2023/01/17 04:35:20;;;;;;;;;4.75;3.75;;;;;20.50;41.58;98472.41;5036563;28;46072;-72
2023/01/17 04:37:45;;;;;;;;;4.75;4.25;;;;;20.50;41.64;98471.59;5036548;28;45265;-72
2023/01/17 04:40:11;;;;;;;;;6.00;4.25;;;;;20.49;41.81;98459.41;5037030;28;45779;-72
2023/01/17 04:42:36;;;;;;;;;6.75;5.75;;;;;20.42;41.71;98440.25;5036439;28;45379;-71
2023/01/17 04:45:03;;;;;;;;;4.25;4.25;;;;;20.48;41.67;98450.69;5036498;28;45770;-71
2023/01/17 04:47:28;;;;;;;;;3.25;3.25;;;;;20.48;41.56;98455.19;5045264;28;45388;-71
2023/01/17 04:49:54;;;;;;;;;2.00;0.75;;;;;20.47;42.00;98445.63;5056774;28;45414;-72
2023/01/17 04:52:19;;;;;;;;;5.50;4.00;;;;;20.48;41.73;98442.75;5055844;28;45575;-72
2023/01/17 04:54:49;;;;;;;;;5.00;5.00;;;;;20.48;41.48;98437.47;5056484;28;46946;-72
2023/01/17 04:57:18;;;;;;;;;6.75;5.25;;;;;20.47;41.45;98429.78;5055769;28;45363;-72
2023/01/17 04:59:45;;;;;;;;;4.00;4.00;;;;;20.47;41.83;98425.31;5055751;28;45545;-73
2023/01/17 05:02:11;;;;;;;;;3.50;3.25;;;;;20.48;41.41;98426.91;5056265;28;45391;-71
2023/01/17 05:04:37;;;;;;;;;7.00;5.75;;;;;20.38;41.53;98411.63;5038291;28;47303;-72
2023/01/17 05:07:02;;;;;;;;;6.00;5.00;;;;;20.47;41.72;98421.88;5056307;28;45331;-72
2023/01/17 05:09:28;;;;;;;;;7.00;4.75;;;;;20.47;41.73;98416.59;5056506;28;45375;-72
2023/01/17 05:11:54;;;;;;;;;4.00;4.00;;;;;20.45;41.66;98416.81;5056048;28;45432;-71
2023/01/17 05:14:20;;;;;;;;;3.75;3.75;;;;;20.46;41.78;98412.31;5055037;28;45452;-72
2023/01/17 05:16:45;;;;;;;;;6.25;3.50;;;;;20.45;41.37;98410.72;5055334;28;45159;-71
2023/01/17 05:19:10;;;;;;;;;5.00;4.00;;;;;20.44;41.57;98409.91;5038098;28;45271;-72
2023/01/17 05:21:36;;;;;;;;;4.00;4.00;;;;;20.42;41.39;98403.25;5056419;28;45363;-72
2023/01/17 05:24:01;;;;;;;;;5.50;3.25;;;;;20.33;41.37;98385.09;5055976;28;46843;-72
2023/01/17 05:26:26;;;;;;;;;3.75;3.75;;;;;20.45;41.70;98402.81;5055028;28;45295;-71
2023/01/17 05:28:52;;;;;;;;;7.00;4.75;;;;;20.46;41.38;98410.50;5056062;28;45385;-71
2023/01/17 05:31:17;;;;;;;;;4.50;4.00;;;;;20.47;41.91;98398.09;5056097;28;45526;-72
2023/01/17 05:33:42;;;;;;;;;7.00;5.00;;;;;20.49;41.68;98403.94;5055990;28;46034;-72
2023/01/17 05:36:08;;;;;;;;;4.67;4.67;;;;;20.49;41.34;98401.31;5055891;28;45329;-72
2023/01/17 05:38:33;;;;;;;;;5.00;5.00;;;;;20.48;41.76;98395.22;5055980;28;45308;-72
2023/01/17 05:41:00;;;;;;;;;4.00;3.25;;;;;20.49;41.20;98394.19;5055650;28;45386;-72
2023/01/17 05:43:26;;;;;;;;;5.25;4.50;;;;;20.46;41.61;98388.56;5055890;28;45351;-72
2023/01/17 05:45:51;;;;;;;;;4.00;4.00;;;;;20.49;41.67;98398.66;5054869;28;45485;-71
2023/01/17 05:48:16;;;;;;;;;4.25;4.25;;;;;20.48;41.21;98392.56;5054255;28;45389;-70
2023/01/17 05:50:42;;;;;;;;;4.75;4.75;;;;;20.49;41.49;98385.47;5054462;28;45306;-72
2023/01/17 05:53:12;;;;;;;;;4.25;3.50;;;;;20.48;41.72;98386.50;5054052;28;46167;-72
2023/01/17 05:55:39;;;;;;;;;5.25;5.00;;;;;20.47;41.20;98388.34;5053654;28;45368;-70
2023/01/17 05:58:05;;;;;;;;;6.75;5.00;;;;;20.47;40.98;98388.34;5054139;28;45497;-71
2023/01/17 06:00:31;;;;;;;;;5.00;4.67;;;;;20.46;41.36;98394.66;5054122;28;45391;-72
2023/01/17 06:02:58;;;;;;;;;7.33;3.00;;;;;20.44;41.29;98393.25;5054025;28;46513;-71
2023/01/17 06:05:25;;;;;;;;;4.75;4.25;;;;;20.44;41.50;98399.34;5053976;28;45264;-71
2023/01/17 06:07:50;;;;;;;;;4.00;4.00;;;;;20.46;41.28;98407.84;5054080;28;45253;-72
2023/01/17 06:10:18;;;;;;;;;5.00;4.00;;;;;20.46;41.25;98417.59;5056131;28;45205;-72
2023/01/17 06:12:44;;;;;;;;;5.00;5.00;;;;;20.44;41.44;98415.22;5058247;28;46450;-72
2023/01/17 06:15:11;;;;;;;;;6.25;3.75;;;;;20.45;41.17;98421.28;5058049;28;45418;-72
2023/01/17 06:17:37;;;;;;;;;3.75;2.75;;;;;20.45;41.38;98427.38;5058197;28;45387;-72
2023/01/17 06:20:05;;;;;;;;;5.50;4.75;;;;;20.38;41.49;98424.84;5058267;28;45253;-72
2023/01/17 06:22:31;;;;;;;;;6.50;6.00;;;;;20.45;41.18;98435.31;5057867;28;47247;-72
2023/01/17 06:24:56;;;;;;;;;5.50;5.00;;;;;20.45;41.26;98426.56;5057691;28;45419;-72
2023/01/17 06:27:22;;;;;;;;;5.00;4.25;;;;;20.45;41.23;98434.50;5057841;28;45474;-72
2023/01/17 06:29:47;;;;;;;;;3.00;3.00;;;;;20.44;41.16;98432.88;5057971;28;45439;-72
2023/01/17 06:32:13;;;;;;;;;5.00;4.00;;;;;20.36;41.65;98421.63;5057994;28;45805;-72
2023/01/17 06:34:39;;;;;;;;;7.00;6.00;;;;;20.34;41.20;98422.88;5057771;28;45406;-72
2023/01/17 06:37:05;;;;;;;;;4.33;4.00;;;;;20.35;41.09;98421.88;5058014;28;45374;-72
2023/01/17 06:39:30;;;;;;;;;5.00;4.50;;;;;20.37;41.35;98420.59;5039324;28;45582;-72
2023/01/17 06:41:55;;;;;;;;;4.25;3.50;;;;;20.42;41.17;98421.75;5057585;28;45788;-72
2023/01/17 06:44:21;;;;;;;;;4.25;4.00;;;;;20.37;41.40;98422.44;5057678;28;45419;-72
2023/01/17 06:46:46;;;;;;;;;4.33;4.00;;;;;20.38;41.39;98416.91;5018697;28;1114723;-73
2023/01/17 06:49:12;;;;;;;;;1.00;1.00;;;;;20.40;41.36;98428.06;5058679;28;45316;-71
2023/01/17 06:51:38;;;;;;;;;4.00;1.67;;;;;20.29;41.09;98403.25;5058711;28;45376;-71
2023/01/17 06:54:03;;;;;;;;;6.00;5.75;;;;;20.40;41.17;98432.56;5058056;28;45302;-71
2023/01/17 06:56:30;;;;;;;;;5.00;5.00;;;;;20.39;41.15;98423.81;5058593;28;45358;-72
2023/01/17 06:58:55;;;;;;;;;6.00;4.50;;;;;20.33;41.20;98419.44;5058493;28;45446;-76
2023/01/17 07:01:21;;;;;;;;;3.67;3.67;;;;;20.39;41.31;98434.38;5058225;28;46146;-73
2023/01/17 07:03:46;;;;;;;;;3.00;3.00;;;;;20.38;41.09;98431.94;5058403;28;45285;-74
2023/01/17 07:06:11;;;;;;;;;5.00;4.00;;;;;20.35;41.25;98427.16;5057635;28;45346;-75
2023/01/17 07:08:37;;;;;;;;;3.00;3.00;;;;;20.42;41.78;98440.25;5057888;28;45474;-75
2023/01/17 07:11:06;;;;;;;;;4.25;4.25;;;;;20.43;41.86;98447.13;5058202;28;45245;-75
2023/01/17 07:13:39;;;;;;;;;4.00;3.75;;;;;20.42;41.79;98438.41;5058137;28;45256;-75
2023/01/17 07:16:06;;;;;;;;;7.00;5.00;;;;;20.43;41.92;98442.63;5058247;28;45292;-75
2023/01/17 07:18:32;;;;;;;;;4.00;4.00;;;;;20.44;42.01;98443.44;5058033;28;45379;-75
2023/01/17 07:20:58;;;;;;;;;3.50;3.50;;;;;20.43;42.02;98439.22;5057601;28;47093;-74
2023/01/17 07:23:24;;;;;;;;;2.67;2.67;;;;;20.43;42.24;98441.84;5057771;28;45269;-77
2023/01/17 07:25:51;;;;;;;;;4.75;4.00;;;;;20.36;42.31;98426.91;5057977;28;45284;-77
2023/01/17 07:28:16;;;;;;;;;6.50;4.25;;;;;20.45;42.29;98442.44;5058208;28;45198;-75
2023/01/17 07:30:41;;;;;;;;;4.50;4.50;;;;;20.46;42.00;98442.19;5056926;28;47011;-71
2023/01/17 07:33:07;;;;;;;;;3.00;3.00;;;;;20.46;42.47;98436.91;5057804;28;45248;-72
2023/01/17 07:35:33;;;;;;;;;4.00;3.75;;;;;20.46;42.28;98438.72;5057740;28;45316;-74
2023/01/17 07:37:58;;;;;;;;;4.00;3.00;;;;;20.47;42.29;98440.34;5031635;28;45960;-75
2023/01/17 07:40:24;;;;;;;;;5.67;2.33;;;;;20.48;42.46;98439.34;5047643;28;46430;-75
2023/01/17 07:42:49;;;;;;;;;3.00;1.50;;;;;20.48;42.42;98445.41;5056987;28;45336;-75
2023/01/17 07:45:15;;;;;;;;;4.00;4.00;;;;;20.49;42.38;98438.28;5057179;28;45477;-75
2023/01/17 07:47:41;;;;;;;;;5.25;3.75;;;;;20.48;42.00;98434.84;5055574;28;45372;-74
2023/01/17 07:50:08;;;;;;;;;6.50;5.00;;;;;20.49;42.07;98439.09;5056581;28;46157;-74
2023/01/17 07:52:33;;;;;;;;;4.00;4.00;;;;;20.49;42.29;98431.16;5056551;28;45545;-75
2023/01/17 07:54:58;;;;;;;;;6.00;3.33;;;;;20.50;42.23;98429.34;5055833;28;45393;-75
2023/01/17 07:57:24;;;;;;;;;3.00;3.00;;;;;20.50;41.89;98432.78;5057140;28;45316;-75
2023/01/17 07:59:51;;;;;;;;;5.75;4.25;;;;;20.47;41.82;98425.31;5056383;28;46150;-75
2023/01/17 08:02:21;;;;;;;;;3.00;3.00;;;;;20.50;41.87;98440.72;5056756;28;45392;-74
2023/01/17 08:04:47;;;;;;;;;7.00;5.00;;;;;20.50;41.96;98434.63;5056041;28;45401;-75
2023/01/17 08:07:13;;;;;;;;;3.00;3.00;;;;;20.50;42.17;98435.44;5056206;28;45690;-75
2023/01/17 08:09:40;;;;;;;;;3.50;3.00;;;;;20.51;41.75;98436.22;5054876;28;46429;-74
2023/01/17 08:12:05;;;;;;;;;3.67;3.00;;;;;20.50;42.03;98445.19;5055749;28;45470;-75
2023/01/17 08:14:31;;;;;;;;;4.00;3.67;;;;;20.49;41.79;98443.56;5054752;28;45326;-75
2023/01/17 08:17:08;;;;;;;;;4.67;4.33;;;;;20.49;41.75;98452.31;5055917;28;45547;-74
2023/01/17 08:19:33;;;;;;;;;3.33;3.00;;;;;20.47;42.17;98443.00;5055579;28;45710;-74
2023/01/17 08:21:58;;;;;;;;;5.33;4.00;;;;;20.48;41.83;98449.91;5054522;28;46413;-75
2023/01/17 08:24:23;;;;;;;;;2.00;2.00;;;;;20.48;42.07;98450.69;5056010;28;45339;-75
2023/01/17 08:26:49;;;;;;;;;3.00;3.00;;;;;20.48;42.13;98445.41;5054432;28;45371;-75
2023/01/17 08:29:14;;;;;;;;;6.25;3.75;;;;;20.48;41.95;98444.63;5056006;28;46494;-74
2023/01/17 08:31:40;;;;;;;;;4.33;3.00;;;;;20.47;42.03;98453.56;5055823;28;45376;-75
2023/01/17 08:34:05;;;;;;;;;4.00;4.00;;;;;20.46;41.65;98450.13;5038255;28;45929;-75
2023/01/17 08:36:30;;;;;;;;;2.33;2.33;;;;;20.47;41.87;98450.91;5019628;28;45552;-73
2023/01/17 08:38:56;;;;;;;;;4.25;3.25;;;;;20.39;41.80;98446.78;5050177;28;46110;-71
2023/01/17 08:41:23;;;;;;;;;5.00;4.00;;;;;20.46;41.90;98455.41;5052740;28;45335;-73
2023/01/17 08:43:50;;;;;;;;;4.50;4.00;;;;;20.45;41.83;98451.16;5054883;28;45450;-71
2023/01/17 08:46:16;;;;;;;;;5.00;3.00;;;;;20.34;41.90;98439.53;5052509;28;45486;-72
2023/01/17 08:48:42;;;;;;;;;4.00;3.00;;;;;20.44;41.93;98460.09;5052164;28;46665;-73
2023/01/17 08:51:08;;;;;;;;;3.00;3.00;;;;;20.34;41.79;98444.81;5052849;28;45531;-74
2023/01/17 08:53:33;;;;;;;;;1.33;0.00;;;;;20.43;41.90;98458.47;5053872;28;45584;-71
2023/01/17 08:56:00;;;;;;;;;3.00;3.00;;;;;20.44;41.59;98459.28;5055948;28;45843;-71
2023/01/17 08:58:27;;;;;;;;;5.00;4.00;;;;;20.43;41.71;98449.78;5055730;28;46348;-73
2023/01/17 09:00:53;;;;;;;;;4.00;4.00;;;;;20.43;41.65;98465.63;5055540;28;45475;-74
2023/01/17 09:03:18;;;;;;;;;4.00;4.00;;;;;20.42;41.70;98453.44;5055099;28;45542;-73
2023/01/17 09:05:43;;;;;;;;;5.50;4.00;;;;;20.40;41.57;98451.81;5057814;28;46545;-71
2023/01/17 09:08:09;;;;;;;;;5.00;3.75;;;;;20.40;41.89;98453.69;5057878;28;46122;-73
2023/01/17 09:10:34;;;;;;;;;4.50;3.25;;;;;20.42;41.55;98459.53;5054239;28;45544;-73
2023/01/17 09:12:59;;;;;;;;;4.25;4.25;;;;;20.42;41.59;98456.09;5056250;28;45545;-72
2023/01/17 09:15:25;;;;;;;;;5.75;2.50;;;;;20.36;41.80;98455.16;5054625;28;45489;-71
2023/01/17 09:17:54;;;;;;;;;5.00;3.00;;;;;20.38;41.71;98468.94;5054384;28;46275;-73
2023/01/17 09:20:19;;;;;;;;;3.75;3.75;;;;;20.40;41.65;98474.81;5054825;28;45541;-72
2023/01/17 09:22:44;;;;;;;;;2.33;2.33;;;;;20.31;41.80;98460.31;5054614;28;45571;-74
2023/01/17 09:25:10;;;;;;;;;4.75;4.50;;;;;20.37;41.65;98478.72;5056415;28;45556;-74
2023/01/17 09:27:35;;;;;;;;;7.00;4.00;;;;;20.38;41.68;98487.41;5053022;28;45502;-72
2023/01/17 09:30:01;;;;;;;;;5.50;2.50;;;;;20.38;41.77;98488.22;5052952;28;45392;-71
2023/01/17 09:32:26;;;;;;;;;5.25;4.50;;;;;20.36;41.37;98478.91;5054963;28;45455;-71
2023/01/17 09:34:51;;;;;;;;;4.50;2.00;;;;;20.37;41.68;98486.63;5053690;28;45391;-73
2023/01/17 09:37:17;;;;;;;;;3.75;3.00;;;;;20.31;41.31;98484.88;5051508;28;46303;-73
2023/01/17 09:39:42;;;;;;;;;4.00;3.50;;;;;20.34;41.67;98487.06;5053598;28;45485;-73
2023/01/17 09:42:37;;;;;;;;;4.00;4.00;;;;;20.38;41.75;98488.22;5053148;28;45510;-72
2023/01/17 09:45:03;;;;;;;;;6.00;4.75;;;;;20.38;41.25;98490.88;5054704;28;45524;-71
2023/01/17 09:47:32;;;;;;;;;4.50;4.50;;;;;20.39;41.54;98494.31;5050797;28;45957;-73
2023/01/17 09:50:37;;;;;;;;;4.00;4.00;;;;;20.38;41.42;98493.50;5058247;28;45475;-73
2023/01/17 09:53:12;;;;;;;;;3.00;3.00;;;;;20.38;41.49;98504.06;5056027;28;45750;-73
2023/01/17 09:55:49;;;;;;;;;4.50;3.75;;;;;20.39;41.25;98502.25;5058545;28;45593;-73
2023/01/17 09:58:20;;;;;;;;;4.00;4.00;;;;;20.38;41.33;98497.97;5056274;28;46297;-73
2023/01/17 10:01:00;;;;;;;;;4.25;4.00;;;;;20.39;41.20;98505.69;5036097;28;45467;-73
2023/01/17 10:03:52;;;;;;;;;4.25;2.75;;;;;20.38;40.87;98504.06;5056368;28;45520;-73
2023/01/17 10:06:44;;;;;;;;;4.25;3.75;;;;;20.37;41.19;98513.03;5055630;28;45539;-73
2023/01/17 10:09:32;;;;;;;;;2.50;2.50;;;;;20.41;41.40;98510.75;5057332;28;46505;-72
2023/01/17 10:12:19;;;;;;;;;3.50;2.75;;;;;20.41;41.16;98516.03;5055905;28;46390;-71
2023/01/17 10:14:50;;;;;;;;;4.25;3.25;;;;;20.40;41.56;98522.34;5055118;28;45656;-74
2023/01/17 10:17:42;;;;;;;;;4.00;4.00;;;;;20.40;41.09;98525.00;5057762;28;45462;-74
2023/01/17 10:20:32;;;;;;;;;3.00;2.75;;;;;20.39;41.23;98523.38;5059063;28;46159;-72
2023/01/17 10:23:09;;;;;;;;;3.75;3.75;;;;;20.38;41.38;98524.38;5057967;28;45739;-73
2023/01/17 10:25:46;;;;;;;;;3.00;3.00;;;;;20.25;41.41;98507.72;5055207;28;45596;-73
2023/01/17 10:28:14;;;;;;;;;3.00;3.00;;;;;20.34;41.16;98528.53;5058315;28;45415;-73
2023/01/17 10:30:47;;;;;;;;;3.00;3.00;;;;;20.37;41.16;98528.06;5057134;28;46503;-73
2023/01/17 10:33:30;;;;;;;;;4.00;4.00;;;;;20.25;41.38;98510.34;5055298;28;45553;-73
2023/01/17 10:35:59;;;;;;;;;3.00;3.00;;;;;20.37;41.28;98523.59;5057462;28;45465;-73
2023/01/17 10:38:32;;;;;;;;;4.75;3.50;;;;;20.36;41.34;98524.63;5057927;28;45478;-73
2023/01/17 10:41:04;;;;;;;;;4.75;4.75;;;;;20.36;41.18;98526.44;5055750;28;47228;-73
2023/01/17 10:43:38;;;;;;;;;4.33;3.67;;;;;20.36;41.40;98523.81;5051941;28;45467;-72
2023/01/17 10:46:04;;;;;;;;;3.75;2.50;;;;;20.34;41.38;98521.41;5053420;28;47011;-72
2023/01/17 10:48:34;;;;;;;;;3.50;3.50;;;;;20.34;41.32;98521.41;5053875;28;45477;-72
2023/01/17 10:51:11;;;;;;;;;3.75;3.50;;;;;20.34;41.00;98523.25;5055247;28;47409;-72
2023/01/17 10:53:52;;;;;;;;;3.25;3.25;;;;;20.34;41.32;98525.88;5056891;28;45352;-72
2023/01/17 10:56:24;;;;;;;;;3.25;3.25;;;;;20.33;41.22;98521.63;5052860;28;45619;-71
2023/01/17 10:59:01;;;;;;;;;5.25;3.25;;;;;20.34;41.20;98529.34;5055620;28;46799;-72
2023/01/17 11:01:26;;;;;;;;;4.00;2.00;;;;;20.35;41.40;98525.66;5057045;28;46256;-72
2023/01/17 11:03:54;;;;;;;;;3.00;3.00;;;;;20.34;41.65;98524.06;5057583;28;45392;-72
2023/01/17 11:06:25;;;;;;;;;4.50;3.00;;;;;20.35;41.41;98528.28;5054598;28;45493;-71
2023/01/17 11:09:09;;;;;;;;;4.75;4.75;;;;;20.34;41.68;98521.41;5057799;28;45487;-72
2023/01/17 11:11:49;;;;;;;;;4.00;2.75;;;;;20.37;41.54;98523.59;5054295;28;46685;-71
2023/01/17 11:14:20;;;;;;;;;4.25;4.00;;;;;20.38;41.80;98514.63;5056208;28;45576;-71
2023/01/17 11:16:59;;;;;;;;;4.50;3.75;;;;;20.33;41.61;98501.31;5060339;28;45875;-71
2023/01/17 11:19:29;;;;;;;;;5.00;3.50;;;;;20.37;41.78;98520.97;5054998;28;45396;-72
2023/01/17 11:22:00;;;;;;;;;6.25;4.25;;;;;20.39;41.66;98512.81;5046723;28;46310;-73
2023/01/17 11:24:39;;;;;;;;;4.75;2.75;;;;;20.34;41.90;98508.22;5058953;28;45642;-72
2023/01/17 11:27:07;;;;;;;;;3.50;3.50;;;;;20.39;42.00;98518.09;5055461;28;45517;-72
2023/01/17 11:29:37;;;;;;;;;5.50;4.50;;;;;20.28;41.36;98507.28;5059132;28;45531;-73
2023/01/17 11:32:21;;;;;;;;;3.00;3.00;;;;;20.40;41.69;98520.50;5062831;28;45990;-71
2023/01/17 11:35:04;;;;;;;;;5.33;3.67;;;;;20.35;41.89;98512.44;5054102;28;45527;-71
2023/01/17 11:37:29;;;;;;;;;4.00;4.00;;;;;20.40;41.60;98517.84;5058194;28;45387;-71
2023/01/17 11:40:07;;;;;;;;;3.75;2.75;;;;;20.42;41.51;98514.19;5057630;28;45475;-71
2023/01/17 11:42:35;;;;;;;;;3.50;3.50;;;;;20.43;41.54;98513.16;5060800;28;46022;-72
2023/01/17 11:45:23;;;;;;;;;3.00;2.75;;;;;20.42;41.48;98512.34;5058327;28;45880;-71
2023/01/17 11:48:10;;;;;;;;;3.75;3.25;;;;;20.43;41.45;98513.16;5056616;28;45443;-71
2023/01/17 11:50:54;;;;;;;;;4.50;4.50;;;;;20.42;41.41;98507.06;5041809;28;45653;-71
2023/01/17 11:53:22;;;;;;;;;5.25;4.00;;;;;20.43;41.64;98507.88;5055494;28;46309;-71
2023/01/17 11:55:54;;;;;;;;;5.75;4.25;;;;;20.43;41.69;98508.66;5055570;28;45502;-71
2023/01/17 11:58:20;;;;;;;;;5.75;5.75;;;;;20.44;41.53;98505.00;5058030;28;45431;-71
2023/01/17 12:00:58;;;;;;;;;3.75;3.50;;;;;20.44;41.69;98505.00;5054693;28;45362;-72
2023/01/17 12:03:48;;;;;;;;;4.50;4.50;;;;;20.44;41.64;98501.56;5055237;28;47107;-72
2023/01/17 12:06:35;;;;;;;;;5.25;3.50;;;;;20.44;41.51;98509.47;5054624;28;46789;-73
2023/01/17 12:09:21;;;;;;;;;6.50;4.75;;;;;20.43;41.31;98503.38;5057090;28;45324;-72
2023/01/17 12:15:24;;;;;;;;;6.75;5.25;;;;;20.40;40.19;98503.84;4992138;28;45965;-72
2023/01/17 12:18:05;;;;;;;;;5.50;4.75;;;;;20.36;40.44;98503.50;4988761;28;45500;-71
2023/01/17 12:20:58;;;;;;;;;5.75;3.00;;;;;20.35;41.18;98496.59;4990217;28;45521;-72
2023/01/17 12:23:26;;;;;;;;;3.75;3.00;;;;;20.36;41.20;98503.50;4989241;28;45545;-73
2023/01/17 12:26:01;;;;;;;;;2.50;2.50;;;;;20.35;41.12;98504.50;4993527;28;46428;-73
2023/01/17 12:28:55;;;;;;;;;3.25;2.75;;;;;20.37;41.22;98496.38;4993272;28;45426;-72
2023/01/17 12:31:50;;;;;;;;;3.00;3.00;;;;;20.31;41.51;98486.72;4993370;28;45578;-72
2023/01/17 12:34:30;;;;;;;;;5.00;4.50;;;;;20.37;41.50;98489.28;4989805;28;45615;-71
2023/01/17 12:37:05;;;;;;;;;3.75;3.75;;;;;20.25;41.73;98468.09;4982408;28;46362;-72
2023/01/17 12:39:43;;;;;;;;;3.00;3.00;;;;;20.26;41.41;98469.72;4976036;28;45591;-72
2023/01/17 12:42:19;;;;;;;;;3.75;3.75;;;;;20.37;41.48;98489.28;4988248;28;45394;-72
2023/01/17 12:45:06;;;;;;;;;2.00;2.00;;;;;20.37;41.73;98489.28;4993369;28;45481;-72
2023/01/17 12:47:41;;;;;;;;;5.00;5.00;;;;;20.38;41.46;98485.59;4992870;28;45591;-72
2023/01/17 12:50:29;;;;;;;;;4.25;4.25;;;;;20.38;41.75;98482.13;5050110;28;45315;-72
2023/01/17 12:53:13;;;;;;;;;4.50;4.50;;;;;20.40;41.38;98486.16;5047710;28;45324;-72
2023/01/17 12:55:55;;;;;;;;;2.00;2.00;;;;;20.42;41.63;98493.06;5043511;28;45515;-72
2023/01/17 12:58:25;;;;;;;;;5.25;4.00;;;;;20.43;41.67;98486.75;5055246;28;45307;-70
2023/01/17 13:01:01;;;;;;;;;2.75;2.00;;;;;20.43;41.54;98487.53;5055152;28;45795;-72
2023/01/17 13:04:05;;;;;;;;;3.25;3.25;;;;;20.44;41.61;98486.53;5054925;28;45558;-72
2023/01/17 13:06:44;;;;;;;;;3.00;3.00;;;;;20.42;41.57;98485.94;4992686;28;45437;-71
2023/01/17 13:09:15;;;;;;;;;4.00;4.00;;;;;20.46;41.07;98488.91;4992991;28;47266;-72
2023/01/17 13:11:50;;;;;;;;;4.50;3.00;;;;;20.38;41.48;98474.22;4992754;28;45738;-72
2023/01/17 13:14:15;;;;;;;;;5.00;4.25;;;;;20.46;41.37;98483.63;4992407;28;45346;-72
2023/01/17 13:16:58;;;;;;;;;2.00;2.00;;;;;20.48;41.27;98492.94;4974219;28;45536;-72